sensor_id;sensor_type;location;lat;lon;timestamp;P1;durP1;ratioP1;P2;durP2;ratioP2
62401;SDS011;48440;51.224;22.506;2024-02-26T00:01:07;10.10;;;7.43;;
62401;SDS011;48440;51.224;22.506;2024-02-26T00:03:33;8.95;;;7.28;;
62401;SDS011;48440;51.224;22.506;2024-02-26T00:06:01;9.15;;;6.38;;
62401;SDS011;48440;51.224;22.506;2024-02-26T00:08:27;9.30;;;6.82;;
62401;SDS011;48440;51.224;22.506;2024-02-26T00:10:53;9.35;;;6.40;;
62401;SDS011;48440;51.224;22.506;2024-02-26T00:13:19;11.10;;;7.15;;
62401;SDS011;48440;51.224;22.506;2024-02-26T00:15:45;13.38;;;7.75;;
62401;SDS011;48440;51.224;22.506;2024-02-26T00:18:11;10.90;;;7.43;;
62401;SDS011;48440;51.224;22.506;2024-02-26T00:20:36;10.00;;;7.03;;
62401;SDS011;48440;51.224;22.506;2024-02-26T00:23:02;9.60;;;6.82;;
62401;SDS011;48440;51.224;22.506;2024-02-26T00:25:27;10.60;;;6.78;;
62401;SDS011;48440;51.224;22.506;2024-02-26T00:27:53;9.63;;;7.18;;
62401;SDS011;48440;51.224;22.506;2024-02-26T00:30:18;9.55;;;7.30;;
62401;SDS011;48440;51.224;22.506;2024-02-26T00:32:44;9.65;;;7.15;;
62401;SDS011;48440;51.224;22.506;2024-02-26T00:35:09;9.68;;;7.32;;
62401;SDS011;48440;51.224;22.506;2024-02-26T00:37:35;9.57;;;6.90;;
62401;SDS011;48440;51.224;22.506;2024-02-26T00:40:00;11.07;;;7.43;;
62401;SDS011;48440;51.224;22.506;2024-02-26T00:42:26;10.38;;;7.35;;
62401;SDS011;48440;51.224;22.506;2024-02-26T00:44:51;9.80;;;7.18;;
62401;SDS011;48440;51.224;22.506;2024-02-26T00:47:17;11.00;;;8.10;;
62401;SDS011;48440;51.224;22.506;2024-02-26T00:49:42;9.73;;;7.85;;
62401;SDS011;48440;51.224;22.506;2024-02-26T00:52:08;10.18;;;7.35;;
62401;SDS011;48440;51.224;22.506;2024-02-26T00:54:33;10.95;;;7.82;;
62401;SDS011;48440;51.224;22.506;2024-02-26T00:56:58;8.65;;;7.60;;
62401;SDS011;48440;51.224;22.506;2024-02-26T00:59:24;9.90;;;7.55;;
62401;SDS011;48440;51.224;22.506;2024-02-26T01:01:50;10.70;;;7.75;;
62401;SDS011;48440;51.224;22.506;2024-02-26T01:04:15;11.55;;;7.97;;
62401;SDS011;48440;51.224;22.506;2024-02-26T01:06:41;10.65;;;8.32;;
62401;SDS011;48440;51.224;22.506;2024-02-26T01:09:06;10.57;;;8.00;;
62401;SDS011;48440;51.224;22.506;2024-02-26T01:11:31;9.93;;;8.13;;
62401;SDS011;48440;51.224;22.506;2024-02-26T01:13:57;12.30;;;8.18;;
62401;SDS011;48440;51.224;22.506;2024-02-26T01:16:23;11.35;;;7.97;;
62401;SDS011;48440;51.224;22.506;2024-02-26T01:18:49;10.98;;;8.15;;
62401;SDS011;48440;51.224;22.506;2024-02-26T01:21:14;9.30;;;7.78;;
62401;SDS011;48440;51.224;22.506;2024-02-26T01:23:40;11.38;;;7.80;;
62401;SDS011;48440;51.224;22.506;2024-02-26T01:26:05;10.73;;;8.02;;
62401;SDS011;48440;51.224;22.506;2024-02-26T01:28:31;12.02;;;9.02;;
62401;SDS011;48440;51.224;22.506;2024-02-26T01:30:56;11.02;;;7.40;;
62401;SDS011;48440;51.224;22.506;2024-02-26T01:33:24;10.77;;;7.70;;
62401;SDS011;48440;51.224;22.506;2024-02-26T01:35:50;9.63;;;7.05;;
62401;SDS011;48440;51.224;22.506;2024-02-26T01:38:16;10.10;;;7.72;;
62401;SDS011;48440;51.224;22.506;2024-02-26T01:40:42;9.35;;;7.65;;
62401;SDS011;48440;51.224;22.506;2024-02-26T01:43:07;10.13;;;7.80;;
62401;SDS011;48440;51.224;22.506;2024-02-26T01:45:33;10.43;;;7.35;;
62401;SDS011;48440;51.224;22.506;2024-02-26T01:47:58;10.07;;;7.57;;
62401;SDS011;48440;51.224;22.506;2024-02-26T01:50:24;10.82;;;7.60;;
62401;SDS011;48440;51.224;22.506;2024-02-26T01:52:50;11.05;;;7.40;;
62401;SDS011;48440;51.224;22.506;2024-02-26T01:55:19;10.45;;;7.50;;
62401;SDS011;48440;51.224;22.506;2024-02-26T01:57:45;13.32;;;7.90;;
62401;SDS011;48440;51.224;22.506;2024-02-26T02:00:14;9.40;;;7.13;;
62401;SDS011;48440;51.224;22.506;2024-02-26T02:02:39;10.38;;;7.38;;
62401;SDS011;48440;51.224;22.506;2024-02-26T02:05:07;9.57;;;7.32;;
62401;SDS011;48440;51.224;22.506;2024-02-26T02:07:34;8.70;;;7.30;;
62401;SDS011;48440;51.224;22.506;2024-02-26T02:10:00;10.25;;;7.07;;
62401;SDS011;48440;51.224;22.506;2024-02-26T02:12:26;13.48;;;7.85;;
62401;SDS011;48440;51.224;22.506;2024-02-26T02:14:52;11.32;;;7.75;;
62401;SDS011;48440;51.224;22.506;2024-02-26T02:17:18;9.48;;;7.10;;
62401;SDS011;48440;51.224;22.506;2024-02-26T02:19:44;9.40;;;7.18;;
62401;SDS011;48440;51.224;22.506;2024-02-26T02:22:10;9.68;;;7.20;;
62401;SDS011;48440;51.224;22.506;2024-02-26T02:24:35;10.82;;;7.07;;
62401;SDS011;48440;51.224;22.506;2024-02-26T02:27:01;9.93;;;8.18;;
62401;SDS011;48440;51.224;22.506;2024-02-26T02:29:26;9.70;;;7.93;;
62401;SDS011;48440;51.224;22.506;2024-02-26T02:31:53;9.98;;;7.68;;
62401;SDS011;48440;51.224;22.506;2024-02-26T02:34:19;10.75;;;8.10;;
62401;SDS011;48440;51.224;22.506;2024-02-26T02:36:52;10.05;;;7.55;;
62401;SDS011;48440;51.224;22.506;2024-02-26T02:39:19;11.55;;;7.85;;
62401;SDS011;48440;51.224;22.506;2024-02-26T02:41:44;11.13;;;8.20;;
62401;SDS011;48440;51.224;22.506;2024-02-26T02:44:10;11.40;;;8.88;;
62401;SDS011;48440;51.224;22.506;2024-02-26T02:46:35;10.50;;;7.95;;
62401;SDS011;48440;51.224;22.506;2024-02-26T02:49:01;10.45;;;7.88;;
62401;SDS011;48440;51.224;22.506;2024-02-26T02:51:27;11.00;;;7.93;;
62401;SDS011;48440;51.224;22.506;2024-02-26T02:53:52;11.15;;;7.97;;
62401;SDS011;48440;51.224;22.506;2024-02-26T02:56:18;12.48;;;8.40;;
62401;SDS011;48440;51.224;22.506;2024-02-26T02:58:44;10.68;;;7.93;;
62401;SDS011;48440;51.224;22.506;2024-02-26T03:01:09;11.00;;;8.30;;
62401;SDS011;48440;51.224;22.506;2024-02-26T03:03:35;13.52;;;8.70;;
62401;SDS011;48440;51.224;22.506;2024-02-26T03:06:01;9.88;;;7.93;;
62401;SDS011;48440;51.224;22.506;2024-02-26T03:08:28;11.98;;;8.02;;
62401;SDS011;48440;51.224;22.506;2024-02-26T03:10:54;14.07;;;8.63;;
62401;SDS011;48440;51.224;22.506;2024-02-26T03:13:19;10.57;;;8.23;;
62401;SDS011;48440;51.224;22.506;2024-02-26T03:15:45;9.70;;;8.20;;
62401;SDS011;48440;51.224;22.506;2024-02-26T03:18:10;9.32;;;7.85;;
62401;SDS011;48440;51.224;22.506;2024-02-26T03:20:36;11.40;;;8.52;;
62401;SDS011;48440;51.224;22.506;2024-02-26T03:23:02;12.80;;;8.73;;
62401;SDS011;48440;51.224;22.506;2024-02-26T03:25:28;9.50;;;8.13;;
62401;SDS011;48440;51.224;22.506;2024-02-26T03:27:53;14.50;;;8.52;;
62401;SDS011;48440;51.224;22.506;2024-02-26T03:30:19;11.88;;;8.45;;
62401;SDS011;48440;51.224;22.506;2024-02-26T03:32:44;12.32;;;9.27;;
62401;SDS011;48440;51.224;22.506;2024-02-26T03:35:10;11.35;;;8.35;;
62401;SDS011;48440;51.224;22.506;2024-02-26T03:37:35;10.30;;;8.98;;
62401;SDS011;48440;51.224;22.506;2024-02-26T03:40:01;10.98;;;8.95;;
62401;SDS011;48440;51.224;22.506;2024-02-26T03:42:26;12.60;;;9.23;;
62401;SDS011;48440;51.224;22.506;2024-02-26T03:44:52;11.65;;;8.88;;
62401;SDS011;48440;51.224;22.506;2024-02-26T03:47:17;10.93;;;9.02;;
62401;SDS011;48440;51.224;22.506;2024-02-26T03:49:43;11.18;;;9.50;;
62401;SDS011;48440;51.224;22.506;2024-02-26T03:52:08;11.43;;;8.98;;
62401;SDS011;48440;51.224;22.506;2024-02-26T03:54:34;14.65;;;9.85;;
62401;SDS011;48440;51.224;22.506;2024-02-26T03:56:59;11.25;;;9.07;;
62401;SDS011;48440;51.224;22.506;2024-02-26T03:59:25;10.48;;;9.02;;
62401;SDS011;48440;51.224;22.506;2024-02-26T04:01:51;11.27;;;8.93;;
62401;SDS011;48440;51.224;22.506;2024-02-26T04:04:17;13.77;;;9.80;;
62401;SDS011;48440;51.224;22.506;2024-02-26T04:06:46;12.60;;;9.52;;
62401;SDS011;48440;51.224;22.506;2024-02-26T04:09:13;11.80;;;9.45;;
62401;SDS011;48440;51.224;22.506;2024-02-26T04:11:39;10.57;;;9.10;;
62401;SDS011;48440;51.224;22.506;2024-02-26T04:14:05;10.57;;;8.80;;
62401;SDS011;48440;51.224;22.506;2024-02-26T04:16:33;11.48;;;8.75;;
62401;SDS011;48440;51.224;22.506;2024-02-26T04:19:00;10.60;;;8.82;;
62401;SDS011;48440;51.224;22.506;2024-02-26T04:21:25;11.48;;;9.02;;
62401;SDS011;48440;51.224;22.506;2024-02-26T04:23:51;11.43;;;8.73;;
62401;SDS011;48440;51.224;22.506;2024-02-26T04:26:20;13.73;;;8.98;;
62401;SDS011;48440;51.224;22.506;2024-02-26T04:28:46;10.48;;;8.63;;
62401;SDS011;48440;51.224;22.506;2024-02-26T04:31:11;13.32;;;9.70;;
62401;SDS011;48440;51.224;22.506;2024-02-26T04:33:37;10.68;;;8.70;;
62401;SDS011;48440;51.224;22.506;2024-02-26T04:36:02;10.50;;;8.73;;
62401;SDS011;48440;51.224;22.506;2024-02-26T04:38:28;11.85;;;8.90;;
62401;SDS011;48440;51.224;22.506;2024-02-26T04:40:54;9.98;;;8.07;;
62401;SDS011;48440;51.224;22.506;2024-02-26T04:43:19;13.15;;;8.70;;
62401;SDS011;48440;51.224;22.506;2024-02-26T04:45:44;11.52;;;8.40;;
62401;SDS011;48440;51.224;22.506;2024-02-26T04:48:10;12.82;;;9.23;;
62401;SDS011;48440;51.224;22.506;2024-02-26T04:50:35;9.32;;;8.32;;
62401;SDS011;48440;51.224;22.506;2024-02-26T04:53:01;11.65;;;8.30;;
62401;SDS011;48440;51.224;22.506;2024-02-26T04:55:26;10.10;;;7.78;;
62401;SDS011;48440;51.224;22.506;2024-02-26T04:57:52;9.30;;;7.97;;
62401;SDS011;48440;51.224;22.506;2024-02-26T05:00:17;10.38;;;8.02;;
62401;SDS011;48440;51.224;22.506;2024-02-26T05:02:43;10.50;;;8.40;;
62401;SDS011;48440;51.224;22.506;2024-02-26T05:05:08;11.18;;;8.48;;
62401;SDS011;48440;51.224;22.506;2024-02-26T05:07:39;10.07;;;8.32;;
62401;SDS011;48440;51.224;22.506;2024-02-26T05:10:05;11.90;;;8.13;;
62401;SDS011;48440;51.224;22.506;2024-02-26T05:12:31;11.27;;;8.60;;
62401;SDS011;48440;51.224;22.506;2024-02-26T05:14:56;12.75;;;8.90;;
62401;SDS011;48440;51.224;22.506;2024-02-26T05:17:22;9.75;;;8.10;;
62401;SDS011;48440;51.224;22.506;2024-02-26T05:19:48;13.63;;;9.13;;
62401;SDS011;48440;51.224;22.506;2024-02-26T05:22:13;11.48;;;8.07;;
62401;SDS011;48440;51.224;22.506;2024-02-26T05:24:39;10.07;;;8.43;;
62401;SDS011;48440;51.224;22.506;2024-02-26T05:27:04;9.40;;;7.80;;
62401;SDS011;48440;51.224;22.506;2024-02-26T05:29:30;9.90;;;7.78;;
62401;SDS011;48440;51.224;22.506;2024-02-26T05:31:56;9.57;;;7.30;;
62401;SDS011;48440;51.224;22.506;2024-02-26T05:34:21;9.68;;;7.70;;
62401;SDS011;48440;51.224;22.506;2024-02-26T05:36:47;12.48;;;8.65;;
62401;SDS011;48440;51.224;22.506;2024-02-26T05:39:12;10.80;;;7.50;;
62401;SDS011;48440;51.224;22.506;2024-02-26T05:41:38;8.85;;;7.50;;
62401;SDS011;48440;51.224;22.506;2024-02-26T05:44:03;8.88;;;7.50;;
62401;SDS011;48440;51.224;22.506;2024-02-26T05:46:29;10.15;;;7.63;;
62401;SDS011;48440;51.224;22.506;2024-02-26T05:48:54;9.60;;;7.68;;
62401;SDS011;48440;51.224;22.506;2024-02-26T05:51:20;11.65;;;7.82;;
62401;SDS011;48440;51.224;22.506;2024-02-26T05:53:45;11.32;;;8.57;;
62401;SDS011;48440;51.224;22.506;2024-02-26T05:56:18;11.38;;;8.73;;
62401;SDS011;48440;51.224;22.506;2024-02-26T05:58:45;13.55;;;8.98;;
62401;SDS011;48440;51.224;22.506;2024-02-26T06:01:11;14.38;;;8.85;;
62401;SDS011;48440;51.224;22.506;2024-02-26T06:03:36;12.30;;;8.35;;
62401;SDS011;48440;51.224;22.506;2024-02-26T06:06:02;13.52;;;8.77;;
62401;SDS011;48440;51.224;22.506;2024-02-26T06:08:28;11.63;;;9.07;;
62401;SDS011;48440;51.224;22.506;2024-02-26T06:10:53;13.02;;;9.40;;
62401;SDS011;48440;51.224;22.506;2024-02-26T06:13:18;13.57;;;9.70;;
62401;SDS011;48440;51.224;22.506;2024-02-26T06:15:44;12.93;;;9.55;;
62401;SDS011;48440;51.224;22.506;2024-02-26T06:18:09;11.95;;;9.23;;
62401;SDS011;48440;51.224;22.506;2024-02-26T06:20:35;13.20;;;10.32;;
62401;SDS011;48440;51.224;22.506;2024-02-26T06:23:01;12.45;;;10.07;;
62401;SDS011;48440;51.224;22.506;2024-02-26T06:25:27;14.57;;;10.35;;
62401;SDS011;48440;51.224;22.506;2024-02-26T06:27:52;15.63;;;10.90;;
62401;SDS011;48440;51.224;22.506;2024-02-26T06:30:18;15.23;;;11.10;;
62401;SDS011;48440;51.224;22.506;2024-02-26T06:32:43;14.60;;;10.82;;
62401;SDS011;48440;51.224;22.506;2024-02-26T06:35:09;14.52;;;10.88;;
62401;SDS011;48440;51.224;22.506;2024-02-26T06:37:36;15.40;;;11.93;;
62401;SDS011;48440;51.224;22.506;2024-02-26T06:40:02;14.32;;;10.88;;
62401;SDS011;48440;51.224;22.506;2024-02-26T06:42:31;14.90;;;11.43;;
62401;SDS011;48440;51.224;22.506;2024-02-26T06:44:57;15.98;;;11.32;;
62401;SDS011;48440;51.224;22.506;2024-02-26T06:47:23;16.45;;;10.95;;
62401;SDS011;48440;51.224;22.506;2024-02-26T06:49:48;17.38;;;11.77;;
62401;SDS011;48440;51.224;22.506;2024-02-26T06:52:14;17.48;;;11.82;;
62401;SDS011;48440;51.224;22.506;2024-02-26T06:54:39;17.30;;;11.60;;
62401;SDS011;48440;51.224;22.506;2024-02-26T06:57:05;16.45;;;12.40;;
62401;SDS011;48440;51.224;22.506;2024-02-26T06:59:30;19.65;;;12.77;;
62401;SDS011;48440;51.224;22.506;2024-02-26T07:01:56;17.25;;;12.18;;
62401;SDS011;48440;51.224;22.506;2024-02-26T07:04:21;18.35;;;12.30;;
62401;SDS011;48440;51.224;22.506;2024-02-26T07:06:47;17.42;;;11.82;;
62401;SDS011;48440;51.224;22.506;2024-02-26T07:09:13;17.42;;;12.05;;
62401;SDS011;48440;51.224;22.506;2024-02-26T07:11:38;15.98;;;12.40;;
62401;SDS011;48440;51.224;22.506;2024-02-26T07:14:11;17.40;;;12.32;;
62401;SDS011;48440;51.224;22.506;2024-02-26T07:16:37;17.38;;;13.00;;
62401;SDS011;48440;51.224;22.506;2024-02-26T07:19:03;16.13;;;12.48;;
62401;SDS011;48440;51.224;22.506;2024-02-26T07:21:29;18.48;;;12.80;;
62401;SDS011;48440;51.224;22.506;2024-02-26T07:23:54;17.75;;;12.43;;
62401;SDS011;48440;51.224;22.506;2024-02-26T07:26:20;16.95;;;11.77;;
62401;SDS011;48440;51.224;22.506;2024-02-26T07:28:45;17.17;;;11.68;;
62401;SDS011;48440;51.224;22.506;2024-02-26T07:31:11;16.27;;;11.88;;
62401;SDS011;48440;51.224;22.506;2024-02-26T07:33:37;17.30;;;12.40;;
62401;SDS011;48440;51.224;22.506;2024-02-26T07:36:02;17.40;;;12.20;;
62401;SDS011;48440;51.224;22.506;2024-02-26T07:38:28;14.88;;;11.00;;
62401;SDS011;48440;51.224;22.506;2024-02-26T07:40:54;14.82;;;10.98;;
62401;SDS011;48440;51.224;22.506;2024-02-26T07:43:19;15.27;;;11.43;;
62401;SDS011;48440;51.224;22.506;2024-02-26T07:45:45;16.10;;;11.65;;
62401;SDS011;48440;51.224;22.506;2024-02-26T07:48:10;16.70;;;11.43;;
62401;SDS011;48440;51.224;22.506;2024-02-26T07:50:37;16.27;;;12.27;;
62401;SDS011;48440;51.224;22.506;2024-02-26T07:53:03;17.58;;;12.40;;
62401;SDS011;48440;51.224;22.506;2024-02-26T07:55:28;18.05;;;12.80;;
62401;SDS011;48440;51.224;22.506;2024-02-26T07:57:54;18.70;;;13.40;;
62401;SDS011;48440;51.224;22.506;2024-02-26T08:00:19;17.98;;;12.65;;
62401;SDS011;48440;51.224;22.506;2024-02-26T08:02:45;18.35;;;12.90;;
62401;SDS011;48440;51.224;22.506;2024-02-26T08:05:12;16.38;;;12.85;;
62401;SDS011;48440;51.224;22.506;2024-02-26T08:07:37;18.67;;;12.75;;
62401;SDS011;48440;51.224;22.506;2024-02-26T08:10:03;16.60;;;12.82;;
62401;SDS011;48440;51.224;22.506;2024-02-26T08:12:29;22.20;;;13.20;;
62401;SDS011;48440;51.224;22.506;2024-02-26T08:14:54;17.08;;;12.27;;
62401;SDS011;48440;51.224;22.506;2024-02-26T08:17:21;18.90;;;13.07;;
62401;SDS011;48440;51.224;22.506;2024-02-26T08:19:46;19.20;;;12.00;;
62401;SDS011;48440;51.224;22.506;2024-02-26T08:22:12;20.20;;;12.95;;
62401;SDS011;48440;51.224;22.506;2024-02-26T08:24:41;16.77;;;12.80;;
62401;SDS011;48440;51.224;22.506;2024-02-26T08:27:07;17.83;;;12.75;;
62401;SDS011;48440;51.224;22.506;2024-02-26T08:29:32;20.90;;;12.65;;
62401;SDS011;48440;51.224;22.506;2024-02-26T08:31:58;17.70;;;13.18;;
62401;SDS011;48440;51.224;22.506;2024-02-26T08:34:24;19.35;;;13.20;;
62401;SDS011;48440;51.224;22.506;2024-02-26T08:36:50;18.70;;;13.77;;
62401;SDS011;48440;51.224;22.506;2024-02-26T08:39:16;18.05;;;13.25;;
62401;SDS011;48440;51.224;22.506;2024-02-26T08:41:43;19.45;;;13.38;;
62401;SDS011;48440;51.224;22.506;2024-02-26T08:44:09;22.75;;;14.82;;
62401;SDS011;48440;51.224;22.506;2024-02-26T08:46:35;19.30;;;13.85;;
62401;SDS011;48440;51.224;22.506;2024-02-26T08:49:00;19.23;;;13.82;;
62401;SDS011;48440;51.224;22.506;2024-02-26T08:51:26;17.02;;;13.43;;
62401;SDS011;48440;51.224;22.506;2024-02-26T08:53:51;19.83;;;13.85;;
62401;SDS011;48440;51.224;22.506;2024-02-26T08:56:17;21.55;;;13.85;;
62401;SDS011;48440;51.224;22.506;2024-02-26T08:58:42;19.55;;;13.60;;
62401;SDS011;48440;51.224;22.506;2024-02-26T09:01:08;21.70;;;13.75;;
62401;SDS011;48440;51.224;22.506;2024-02-26T09:03:34;20.00;;;13.43;;
62401;SDS011;48440;51.224;22.506;2024-02-26T09:05:59;23.05;;;13.02;;
62401;SDS011;48440;51.224;22.506;2024-02-26T09:08:25;16.30;;;12.20;;
62401;SDS011;48440;51.224;22.506;2024-02-26T09:10:51;19.35;;;13.05;;
62401;SDS011;48440;51.224;22.506;2024-02-26T09:13:16;18.65;;;12.55;;
62401;SDS011;48440;51.224;22.506;2024-02-26T09:15:43;17.60;;;11.68;;
62401;SDS011;48440;51.224;22.506;2024-02-26T09:18:09;15.55;;;11.90;;
62401;SDS011;48440;51.224;22.506;2024-02-26T09:20:35;15.75;;;11.02;;
62401;SDS011;48440;51.224;22.506;2024-02-26T09:23:00;16.40;;;11.70;;
62401;SDS011;48440;51.224;22.506;2024-02-26T09:25:26;16.33;;;11.18;;
62401;SDS011;48440;51.224;22.506;2024-02-26T09:27:51;18.05;;;11.50;;
62401;SDS011;48440;51.224;22.506;2024-02-26T09:30:17;15.75;;;10.27;;
62401;SDS011;48440;51.224;22.506;2024-02-26T09:33:13;17.25;;;11.30;;
62401;SDS011;48440;51.224;22.506;2024-02-26T09:41:31;17.02;;;11.48;;
62401;SDS011;48440;51.224;22.506;2024-02-26T09:44:06;16.25;;;11.70;;
62401;SDS011;48440;51.224;22.506;2024-02-26T09:46:32;16.50;;;12.15;;
62401;SDS011;48440;51.224;22.506;2024-02-26T09:48:58;17.77;;;12.45;;
62401;SDS011;48440;51.224;22.506;2024-02-26T09:51:24;19.35;;;12.65;;
62401;SDS011;48440;51.224;22.506;2024-02-26T09:53:53;19.95;;;12.27;;
62401;SDS011;48440;51.224;22.506;2024-02-26T09:56:21;18.15;;;12.50;;
62401;SDS011;48440;51.224;22.506;2024-02-26T10:02:15;15.13;;;11.43;;
62401;SDS011;48440;51.224;22.506;2024-02-26T10:05:02;16.90;;;12.20;;
62401;SDS011;48440;51.224;22.506;2024-02-26T10:07:38;18.67;;;11.85;;
62401;SDS011;48440;51.224;22.506;2024-02-26T10:10:04;18.35;;;12.55;;
62401;SDS011;48440;51.224;22.506;2024-02-26T10:12:42;17.15;;;11.73;;
62401;SDS011;48440;51.224;22.506;2024-02-26T10:25:35;17.27;;;11.32;;
62401;SDS011;48440;51.224;22.506;2024-02-26T11:44:11;16.40;;;9.63;;
62401;SDS011;48440;51.224;22.506;2024-02-26T12:22:06;10.77;;;7.38;;
62401;SDS011;48440;51.224;22.506;2024-02-26T13:50:58;11.15;;;6.55;;
62401;SDS011;48440;51.224;22.506;2024-02-26T13:54:14;10.65;;;7.07;;
62401;SDS011;48440;51.224;22.506;2024-02-26T13:56:57;12.02;;;6.85;;
62401;SDS011;48440;51.224;22.506;2024-02-26T13:59:23;9.90;;;6.80;;
62401;SDS011;48440;51.224;22.506;2024-02-26T14:04:51;9.45;;;6.47;;
62401;SDS011;48440;51.224;22.506;2024-02-26T14:07:36;9.80;;;6.50;;
62401;SDS011;48440;51.224;22.506;2024-02-26T14:10:05;13.35;;;6.50;;
62401;SDS011;48440;51.224;22.506;2024-02-26T14:13:03;8.55;;;6.15;;
62401;SDS011;48440;51.224;22.506;2024-02-26T14:18:50;9.70;;;6.40;;
62401;SDS011;48440;51.224;22.506;2024-02-26T14:21:17;10.88;;;6.70;;
62401;SDS011;48440;51.224;22.506;2024-02-26T14:23:52;7.70;;;5.82;;
62401;SDS011;48440;51.224;22.506;2024-02-26T14:29:38;9.30;;;6.57;;
62401;SDS011;48440;51.224;22.506;2024-02-26T14:35:18;11.45;;;6.30;;
62401;SDS011;48440;51.224;22.506;2024-02-26T14:37:45;10.40;;;5.90;;
62401;SDS011;48440;51.224;22.506;2024-02-26T14:40:17;11.85;;;6.55;;
62401;SDS011;48440;51.224;22.506;2024-02-26T14:46:28;9.57;;;5.78;;
62401;SDS011;48440;51.224;22.506;2024-02-26T14:49:06;9.75;;;5.88;;
62401;SDS011;48440;51.224;22.506;2024-02-26T14:51:41;10.20;;;5.97;;
62401;SDS011;48440;51.224;22.506;2024-02-26T14:54:09;13.00;;;5.88;;
62401;SDS011;48440;51.224;22.506;2024-02-26T14:56:36;9.50;;;6.18;;
62401;SDS011;48440;51.224;22.506;2024-02-26T14:59:02;11.35;;;5.82;;
62401;SDS011;48440;51.224;22.506;2024-02-26T15:01:31;13.02;;;6.00;;
62401;SDS011;48440;51.224;22.506;2024-02-26T15:04:07;7.85;;;5.22;;
62401;SDS011;48440;51.224;22.506;2024-02-26T15:06:32;10.50;;;5.90;;
62401;SDS011;48440;51.224;22.506;2024-02-26T15:12:22;13.25;;;8.45;;
62401;SDS011;48440;51.224;22.506;2024-02-26T15:15:01;10.88;;;5.72;;
62401;SDS011;48440;51.224;22.506;2024-02-26T15:17:31;11.52;;;6.22;;
62401;SDS011;48440;51.224;22.506;2024-02-26T15:20:16;11.20;;;6.72;;
62401;SDS011;48440;51.224;22.506;2024-02-26T15:22:42;9.98;;;6.43;;
62401;SDS011;48440;51.224;22.506;2024-02-26T15:25:08;10.43;;;7.05;;
62401;SDS011;48440;51.224;22.506;2024-02-26T15:27:36;8.95;;;6.97;;
62401;SDS011;48440;51.224;22.506;2024-02-26T15:30:11;10.80;;;7.38;;
62401;SDS011;48440;51.224;22.506;2024-02-26T15:32:37;9.68;;;6.53;;
62401;SDS011;48440;51.224;22.506;2024-02-26T15:35:02;12.00;;;7.45;;
62401;SDS011;48440;51.224;22.506;2024-02-26T15:37:28;12.25;;;7.18;;
62401;SDS011;48440;51.224;22.506;2024-02-26T15:39:53;14.90;;;7.82;;
62401;SDS011;48440;51.224;22.506;2024-02-26T15:42:20;10.60;;;7.38;;
62401;SDS011;48440;51.224;22.506;2024-02-26T15:44:45;13.75;;;8.07;;
62401;SDS011;48440;51.224;22.506;2024-02-26T15:47:11;15.75;;;8.60;;
62401;SDS011;48440;51.224;22.506;2024-02-26T15:49:36;13.63;;;9.20;;
62401;SDS011;48440;51.224;22.506;2024-02-26T15:52:02;17.45;;;10.63;;
62401;SDS011;48440;51.224;22.506;2024-02-26T15:54:32;20.48;;;10.80;;
62401;SDS011;48440;51.224;22.506;2024-02-26T15:56:57;16.67;;;11.88;;
62401;SDS011;48440;51.224;22.506;2024-02-26T15:59:23;21.17;;;12.45;;
62401;SDS011;48440;51.224;22.506;2024-02-26T16:01:52;19.50;;;13.25;;
62401;SDS011;48440;51.224;22.506;2024-02-26T16:04:17;23.38;;;14.05;;
62401;SDS011;48440;51.224;22.506;2024-02-26T16:06:44;28.40;;;15.98;;
62401;SDS011;48440;51.224;22.506;2024-02-26T16:09:13;21.27;;;15.77;;
62401;SDS011;48440;51.224;22.506;2024-02-26T16:11:38;24.02;;;16.17;;
62401;SDS011;48440;51.224;22.506;2024-02-26T16:16:58;29.35;;;17.52;;
62401;SDS011;48440;51.224;22.506;2024-02-26T16:19:28;26.42;;;18.63;;
62401;SDS011;48440;51.224;22.506;2024-02-26T16:21:53;32.72;;;19.92;;
62401;SDS011;48440;51.224;22.506;2024-02-26T16:24:19;32.47;;;21.35;;
62401;SDS011;48440;51.224;22.506;2024-02-26T16:26:45;33.67;;;21.70;;
62401;SDS011;48440;51.224;22.506;2024-02-26T16:29:10;35.78;;;22.05;;
62401;SDS011;48440;51.224;22.506;2024-02-26T16:31:45;41.55;;;23.35;;
62401;SDS011;48440;51.224;22.506;2024-02-26T16:34:10;36.42;;;24.33;;
62401;SDS011;48440;51.224;22.506;2024-02-26T16:36:36;37.63;;;22.45;;
62401;SDS011;48440;51.224;22.506;2024-02-26T16:39:02;35.05;;;22.10;;
62401;SDS011;48440;51.224;22.506;2024-02-26T16:41:33;35.33;;;23.63;;
62401;SDS011;48440;51.224;22.506;2024-02-26T16:43:59;33.63;;;23.25;;
62401;SDS011;48440;51.224;22.506;2024-02-26T16:46:24;39.83;;;24.73;;
62401;SDS011;48440;51.224;22.506;2024-02-26T16:48:50;39.33;;;24.30;;
62401;SDS011;48440;51.224;22.506;2024-02-26T16:51:17;38.13;;;23.85;;
62401;SDS011;48440;51.224;22.506;2024-02-26T16:53:46;37.55;;;23.80;;
62401;SDS011;48440;51.224;22.506;2024-02-26T16:56:11;38.78;;;25.13;;
62401;SDS011;48440;51.224;22.506;2024-02-26T16:58:44;39.50;;;23.88;;
62401;SDS011;48440;51.224;22.506;2024-02-26T17:04:01;33.25;;;23.63;;
62401;SDS011;48440;51.224;22.506;2024-02-26T17:06:28;40.40;;;26.15;;
62401;SDS011;48440;51.224;22.506;2024-02-26T17:08:53;37.45;;;24.10;;
62401;SDS011;48440;51.224;22.506;2024-02-26T17:11:19;41.40;;;25.23;;
62401;SDS011;48440;51.224;22.506;2024-02-26T17:13:45;42.53;;;24.08;;
62401;SDS011;48440;51.224;22.506;2024-02-26T17:16:10;40.58;;;24.00;;
62401;SDS011;48440;51.224;22.506;2024-02-26T17:18:36;35.33;;;23.25;;
62401;SDS011;48440;51.224;22.506;2024-02-26T17:21:01;35.65;;;23.33;;
62401;SDS011;48440;51.224;22.506;2024-02-26T17:23:27;36.08;;;23.20;;
62401;SDS011;48440;51.224;22.506;2024-02-26T17:25:53;35.15;;;22.67;;
62401;SDS011;48440;51.224;22.506;2024-02-26T17:28:18;37.92;;;23.63;;
62401;SDS011;48440;51.224;22.506;2024-02-26T17:30:44;37.78;;;23.65;;
62401;SDS011;48440;51.224;22.506;2024-02-26T17:33:10;36.92;;;22.30;;
62401;SDS011;48440;51.224;22.506;2024-02-26T17:35:36;34.35;;;23.08;;
62401;SDS011;48440;51.224;22.506;2024-02-26T17:38:02;36.88;;;23.77;;
62401;SDS011;48440;51.224;22.506;2024-02-26T17:40:27;36.13;;;22.83;;
62401;SDS011;48440;51.224;22.506;2024-02-26T17:42:54;37.90;;;23.08;;
62401;SDS011;48440;51.224;22.506;2024-02-26T17:45:20;37.17;;;24.27;;
62401;SDS011;48440;51.224;22.506;2024-02-26T17:47:47;36.28;;;23.08;;
62401;SDS011;48440;51.224;22.506;2024-02-26T17:50:15;36.55;;;22.23;;
62401;SDS011;48440;51.224;22.506;2024-02-26T17:52:41;35.50;;;22.75;;
62401;SDS011;48440;51.224;22.506;2024-02-26T17:55:07;37.80;;;23.30;;
62401;SDS011;48440;51.224;22.506;2024-02-26T17:57:33;33.67;;;21.60;;
62401;SDS011;48440;51.224;22.506;2024-02-26T17:59:58;34.95;;;21.42;;
62401;SDS011;48440;51.224;22.506;2024-02-26T18:02:24;35.10;;;19.75;;
62401;SDS011;48440;51.224;22.506;2024-02-26T18:04:49;31.70;;;19.65;;
62401;SDS011;48440;51.224;22.506;2024-02-26T18:07:15;30.67;;;19.52;;
62401;SDS011;48440;51.224;22.506;2024-02-26T18:09:41;29.92;;;18.58;;
62401;SDS011;48440;51.224;22.506;2024-02-26T18:12:06;31.15;;;17.17;;
62401;SDS011;48440;51.224;22.506;2024-02-26T18:14:32;27.27;;;16.73;;
62401;SDS011;48440;51.224;22.506;2024-02-26T18:16:57;28.83;;;17.17;;
62401;SDS011;48440;51.224;22.506;2024-02-26T18:19:23;31.00;;;17.00;;